sensor_id;sensor_type;location;lat;lon;timestamp;temperature;humidity
18880;DHT22;9572;52.378;13.404;2023-06-14T00:00:59;13.90;99.90
18880;DHT22;9572;52.378;13.404;2023-06-14T00:03:28;13.80;99.90
18880;DHT22;9572;52.378;13.404;2023-06-14T00:05:57;13.80;99.90
18880;DHT22;9572;52.378;13.404;2023-06-14T00:08:25;13.80;99.90
18880;DHT22;9572;52.378;13.404;2023-06-14T00:10:52;13.70;99.90
18880;DHT22;9572;52.378;13.404;2023-06-14T00:13:19;13.70;99.90
18880;DHT22;9572;52.378;13.404;2023-06-14T00:15:46;13.70;99.90
18880;DHT22;9572;52.378;13.404;2023-06-14T00:18:13;13.60;99.90
18880;DHT22;9572;52.378;13.404;2023-06-14T00:20:42;13.60;99.90
18880;DHT22;9572;52.378;13.404;2023-06-14T00:23:09;13.60;99.90
18880;DHT22;9572;52.378;13.404;2023-06-14T00:25:37;13.60;99.90
18880;DHT22;9572;52.378;13.404;2023-06-14T00:28:04;13.50;99.90
18880;DHT22;9572;52.378;13.404;2023-06-14T00:30:31;13.50;99.90
18880;DHT22;9572;52.378;13.404;2023-06-14T00:33:02;13.50;99.90
18880;DHT22;9572;52.378;13.404;2023-06-14T00:35:29;13.50;99.90
18880;DHT22;9572;52.378;13.404;2023-06-14T00:37:56;13.50;99.90
18880;DHT22;9572;52.378;13.404;2023-06-14T00:40:24;13.50;99.90
18880;DHT22;9572;52.378;13.404;2023-06-14T00:42:52;13.50;99.90
18880;DHT22;9572;52.378;13.404;2023-06-14T00:45:19;13.50;99.90
18880;DHT22;9572;52.378;13.404;2023-06-14T00:47:48;13.60;99.90
18880;DHT22;9572;52.378;13.404;2023-06-14T00:50:17;13.60;99.90
18880;DHT22;9572;52.378;13.404;2023-06-14T00:52:45;13.60;99.90
18880;DHT22;9572;52.378;13.404;2023-06-14T00:55:14;13.60;99.90
18880;DHT22;9572;52.378;13.404;2023-06-14T00:57:41;13.60;99.90
18880;DHT22;9572;52.378;13.404;2023-06-14T01:00:11;13.50;99.90
18880;DHT22;9572;52.378;13.404;2023-06-14T01:02:38;13.50;99.90
18880;DHT22;9572;52.378;13.404;2023-06-14T01:05:06;13.50;99.90
18880;DHT22;9572;52.378;13.404;2023-06-14T01:07:43;13.40;99.90
18880;DHT22;9572;52.378;13.404;2023-06-14T01:10:26;13.40;99.90
18880;DHT22;9572;52.378;13.404;2023-06-14T01:13:02;13.40;99.90
18880;DHT22;9572;52.378;13.404;2023-06-14T01:15:33;13.40;99.90
18880;DHT22;9572;52.378;13.404;2023-06-14T01:18:01;13.30;99.90
18880;DHT22;9572;52.378;13.404;2023-06-14T01:20:30;13.30;99.90
18880;DHT22;9572;52.378;13.404;2023-06-14T01:22:59;13.20;99.90
18880;DHT22;9572;52.378;13.404;2023-06-14T01:25:26;13.20;99.90
18880;DHT22;9572;52.378;13.404;2023-06-14T01:27:56;13.20;99.90
18880;DHT22;9572;52.378;13.404;2023-06-14T01:30:25;13.20;99.90
18880;DHT22;9572;52.378;13.404;2023-06-14T01:32:53;13.10;99.90
18880;DHT22;9572;52.378;13.404;2023-06-14T01:35:21;13.10;99.90
18880;DHT22;9572;52.378;13.404;2023-06-14T01:37:49;13.10;99.90
18880;DHT22;9572;52.378;13.404;2023-06-14T01:40:18;13.10;99.90
18880;DHT22;9572;52.378;13.404;2023-06-14T01:42:46;13.00;99.90
18880;DHT22;9572;52.378;13.404;2023-06-14T01:45:14;13.00;99.90
18880;DHT22;9572;52.378;13.404;2023-06-14T01:47:43;13.00;99.90
18880;DHT22;9572;52.378;13.404;2023-06-14T01:50:10;13.00;99.90
18880;DHT22;9572;52.378;13.404;2023-06-14T01:52:37;12.90;99.90
18880;DHT22;9572;52.378;13.404;2023-06-14T01:55:06;12.90;99.90
18880;DHT22;9572;52.378;13.404;2023-06-14T01:57:35;12.90;99.90
18880;DHT22;9572;52.378;13.404;2023-06-14T02:00:02;12.90;99.90
18880;DHT22;9572;52.378;13.404;2023-06-14T02:02:29;12.80;99.90
18880;DHT22;9572;52.378;13.404;2023-06-14T02:04:56;12.80;99.90
18880;DHT22;9572;52.378;13.404;2023-06-14T02:07:23;12.80;99.90
18880;DHT22;9572;52.378;13.404;2023-06-14T02:09:51;12.70;99.90
18880;DHT22;9572;52.378;13.404;2023-06-14T02:12:17;12.70;99.90
18880;DHT22;9572;52.378;13.404;2023-06-14T02:14:46;12.60;99.90
18880;DHT22;9572;52.378;13.404;2023-06-14T02:17:14;12.60;99.90
18880;DHT22;9572;52.378;13.404;2023-06-14T02:19:41;12.60;99.90
18880;DHT22;9572;52.378;13.404;2023-06-14T02:22:09;12.60;99.90
18880;DHT22;9572;52.378;13.404;2023-06-14T02:24:36;12.60;99.90
18880;DHT22;9572;52.378;13.404;2023-06-14T02:27:03;12.50;99.90
18880;DHT22;9572;52.378;13.404;2023-06-14T02:29:30;12.50;99.90
18880;DHT22;9572;52.378;13.404;2023-06-14T02:31:59;12.50;99.90
18880;DHT22;9572;52.378;13.404;2023-06-14T02:34:25;12.50;99.90
18880;DHT22;9572;52.378;13.404;2023-06-14T02:36:52;12.50;99.90
18880;DHT22;9572;52.378;13.404;2023-06-14T02:39:19;12.50;99.90
18880;DHT22;9572;52.378;13.404;2023-06-14T02:41:48;12.50;99.90
18880;DHT22;9572;52.378;13.404;2023-06-14T02:44:17;12.50;99.90
18880;DHT22;9572;52.378;13.404;2023-06-14T02:46:45;12.50;99.90
18880;DHT22;9572;52.378;13.404;2023-06-14T02:49:13;12.50;99.90
18880;DHT22;9572;52.378;13.404;2023-06-14T02:51:41;12.50;99.90
18880;DHT22;9572;52.378;13.404;2023-06-14T02:54:08;12.50;99.90
18880;DHT22;9572;52.378;13.404;2023-06-14T02:56:35;12.50;99.90
18880;DHT22;9572;52.378;13.404;2023-06-14T02:59:02;12.50;99.90
18880;DHT22;9572;52.378;13.404;2023-06-14T03:01:29;12.50;99.90
18880;DHT22;9572;52.378;13.404;2023-06-14T03:04:00;12.40;99.90
18880;DHT22;9572;52.378;13.404;2023-06-14T03:06:28;12.40;99.90
18880;DHT22;9572;52.378;13.404;2023-06-14T03:08:56;12.40;99.90
18880;DHT22;9572;52.378;13.404;2023-06-14T03:11:25;12.40;99.90
18880;DHT22;9572;52.378;13.404;2023-06-14T03:13:52;12.40;99.90
18880;DHT22;9572;52.378;13.404;2023-06-14T03:16:20;12.40;99.90
18880;DHT22;9572;52.378;13.404;2023-06-14T03:18:49;12.40;99.90
18880;DHT22;9572;52.378;13.404;2023-06-14T03:21:17;12.40;99.90
18880;DHT22;9572;52.378;13.404;2023-06-14T03:23:45;12.40;99.90
18880;DHT22;9572;52.378;13.404;2023-06-14T03:26:12;12.50;99.90
18880;DHT22;9572;52.378;13.404;2023-06-14T03:28:40;12.50;99.90
18880;DHT22;9572;52.378;13.404;2023-06-14T03:31:07;12.50;99.90
18880;DHT22;9572;52.378;13.404;2023-06-14T03:33:34;12.50;99.90
18880;DHT22;9572;52.378;13.404;2023-06-14T03:36:02;12.50;99.90
18880;DHT22;9572;52.378;13.404;2023-06-14T03:38:29;12.60;99.90
18880;DHT22;9572;52.378;13.404;2023-06-14T03:40:58;12.60;99.90
18880;DHT22;9572;52.378;13.404;2023-06-14T03:43:24;12.60;99.90
18880;DHT22;9572;52.378;13.404;2023-06-14T03:45:52;12.60;99.90
18880;DHT22;9572;52.378;13.404;2023-06-14T03:48:19;12.60;99.90
18880;DHT22;9572;52.378;13.404;2023-06-14T03:50:45;12.70;99.90
18880;DHT22;9572;52.378;13.404;2023-06-14T03:53:12;12.70;99.90
18880;DHT22;9572;52.378;13.404;2023-06-14T03:55:40;12.80;99.90
18880;DHT22;9572;52.378;13.404;2023-06-14T03:58:08;12.80;99.90
18880;DHT22;9572;52.378;13.404;2023-06-14T04:00:36;12.80;99.90
18880;DHT22;9572;52.378;13.404;2023-06-14T04:03:03;12.80;99.90
18880;DHT22;9572;52.378;13.404;2023-06-14T04:05:31;12.80;99.90
18880;DHT22;9572;52.378;13.404;2023-06-14T04:07:58;12.80;99.90
18880;DHT22;9572;52.378;13.404;2023-06-14T04:10:26;12.80;99.90
18880;DHT22;9572;52.378;13.404;2023-06-14T04:12:53;12.80;99.90
18880;DHT22;9572;52.378;13.404;2023-06-14T04:15:21;12.90;99.90
18880;DHT22;9572;52.378;13.404;2023-06-14T04:17:48;12.90;99.90
18880;DHT22;9572;52.378;13.404;2023-06-14T04:20:16;12.90;99.90
18880;DHT22;9572;52.378;13.404;2023-06-14T04:22:43;13.00;99.90
18880;DHT22;9572;52.378;13.404;2023-06-14T04:25:10;13.10;99.90
18880;DHT22;9572;52.378;13.404;2023-06-14T04:27:37;13.20;99.90
18880;DHT22;9572;52.378;13.404;2023-06-14T04:30:06;13.40;99.90
18880;DHT22;9572;52.378;13.404;2023-06-14T04:32:34;13.50;99.90
18880;DHT22;9572;52.378;13.404;2023-06-14T04:35:05;13.60;99.90
18880;DHT22;9572;52.378;13.404;2023-06-14T04:37:32;13.70;99.90
18880;DHT22;9572;52.378;13.404;2023-06-14T04:39:59;13.70;99.90
18880;DHT22;9572;52.378;13.404;2023-06-14T04:42:26;13.80;99.90
18880;DHT22;9572;52.378;13.404;2023-06-14T04:44:57;13.80;99.90
18880;DHT22;9572;52.378;13.404;2023-06-14T04:47:24;13.90;99.90
18880;DHT22;9572;52.378;13.404;2023-06-14T04:49:56;14.00;99.90
18880;DHT22;9572;52.378;13.404;2023-06-14T04:52:23;14.00;99.90
18880;DHT22;9572;52.378;13.404;2023-06-14T04:54:52;14.20;99.90
18880;DHT22;9572;52.378;13.404;2023-06-14T04:57:19;14.50;99.90
18880;DHT22;9572;52.378;13.404;2023-06-14T04:59:47;14.70;99.90
18880;DHT22;9572;52.378;13.404;2023-06-14T05:02:20;14.90;99.90
18880;DHT22;9572;52.378;13.404;2023-06-14T05:04:47;15.00;99.90
18880;DHT22;9572;52.378;13.404;2023-06-14T05:07:15;15.10;99.90
18880;DHT22;9572;52.378;13.404;2023-06-14T05:09:44;15.20;99.90
18880;DHT22;9572;52.378;13.404;2023-06-14T05:12:11;15.50;99.90
18880;DHT22;9572;52.378;13.404;2023-06-14T05:14:38;15.60;99.90
18880;DHT22;9572;52.378;13.404;2023-06-14T05:17:06;15.70;99.90
18880;DHT22;9572;52.378;13.404;2023-06-14T05:19:33;15.70;99.90
18880;DHT22;9572;52.378;13.404;2023-06-14T05:22:00;15.60;99.90
18880;DHT22;9572;52.378;13.404;2023-06-14T05:24:30;15.60;99.90
18880;DHT22;9572;52.378;13.404;2023-06-14T05:26:57;15.60;99.90
18880;DHT22;9572;52.378;13.404;2023-06-14T05:29:24;15.70;99.90
18880;DHT22;9572;52.378;13.404;2023-06-14T05:31:53;15.80;99.90
18880;DHT22;9572;52.378;13.404;2023-06-14T05:34:20;15.90;99.90
18880;DHT22;9572;52.378;13.404;2023-06-14T05:36:46;16.00;99.90
18880;DHT22;9572;52.378;13.404;2023-06-14T05:39:13;16.10;99.90
18880;DHT22;9572;52.378;13.404;2023-06-14T05:41:44;16.30;99.90
18880;DHT22;9572;52.378;13.404;2023-06-14T05:44:11;16.40;99.90
18880;DHT22;9572;52.378;13.404;2023-06-14T05:46:38;16.50;99.90
18880;DHT22;9572;52.378;13.404;2023-06-14T05:49:06;16.50;99.90
18880;DHT22;9572;52.378;13.404;2023-06-14T05:51:33;16.50;99.90
18880;DHT22;9572;52.378;13.404;2023-06-14T05:54:00;16.50;99.90
18880;DHT22;9572;52.378;13.404;2023-06-14T05:56:27;16.50;99.90
18880;DHT22;9572;52.378;13.404;2023-06-14T05:58:56;16.50;99.90
18880;DHT22;9572;52.378;13.404;2023-06-14T06:01:23;16.40;99.90
18880;DHT22;9572;52.378;13.404;2023-06-14T06:03:50;16.40;99.90
18880;DHT22;9572;52.378;13.404;2023-06-14T06:06:17;16.40;99.90
18880;DHT22;9572;52.378;13.404;2023-06-14T06:08:44;16.50;99.90
18880;DHT22;9572;52.378;13.404;2023-06-14T06:11:12;16.50;99.90
18880;DHT22;9572;52.378;13.404;2023-06-14T06:13:40;16.50;99.90
18880;DHT22;9572;52.378;13.404;2023-06-14T06:16:09;16.50;99.90
18880;DHT22;9572;52.378;13.404;2023-06-14T06:18:36;16.50;99.90
18880;DHT22;9572;52.378;13.404;2023-06-14T06:21:03;16.50;99.90
18880;DHT22;9572;52.378;13.404;2023-06-14T06:23:31;16.50;99.90
18880;DHT22;9572;52.378;13.404;2023-06-14T06:25:58;16.50;99.90
18880;DHT22;9572;52.378;13.404;2023-06-14T06:28:24;16.40;99.90
18880;DHT22;9572;52.378;13.404;2023-06-14T06:30:51;16.30;99.90
18880;DHT22;9572;52.378;13.404;2023-06-14T06:33:21;16.20;99.90
18880;DHT22;9572;52.378;13.404;2023-06-14T06:35:48;16.20;99.90
18880;DHT22;9572;52.378;13.404;2023-06-14T06:38:15;16.10;99.90
18880;DHT22;9572;52.378;13.404;2023-06-14T06:40:44;16.10;99.90
18880;DHT22;9572;52.378;13.404;2023-06-14T06:43:10;16.20;99.90
18880;DHT22;9572;52.378;13.404;2023-06-14T06:45:39;16.20;99.90
18880;DHT22;9572;52.378;13.404;2023-06-14T06:48:06;16.20;99.90
18880;DHT22;9572;52.378;13.404;2023-06-14T06:50:36;16.20;99.90
18880;DHT22;9572;52.378;13.404;2023-06-14T06:53:03;16.30;99.90
18880;DHT22;9572;52.378;13.404;2023-06-14T06:55:30;16.50;99.90
18880;DHT22;9572;52.378;13.404;2023-06-14T06:57:57;16.40;99.90
18880;DHT22;9572;52.378;13.404;2023-06-14T07:00:25;16.50;99.90
18880;DHT22;9572;52.378;13.404;2023-06-14T07:02:52;16.60;99.90
18880;DHT22;9572;52.378;13.404;2023-06-14T07:05:20;16.70;99.90
18880;DHT22;9572;52.378;13.404;2023-06-14T07:07:48;16.80;99.90
18880;DHT22;9572;52.378;13.404;2023-06-14T07:10:15;17.00;99.90
18880;DHT22;9572;52.378;13.404;2023-06-14T07:12:42;17.20;99.90
18880;DHT22;9572;52.378;13.404;2023-06-14T07:15:10;17.40;99.90
18880;DHT22;9572;52.378;13.404;2023-06-14T07:17:38;17.70;99.90
18880;DHT22;9572;52.378;13.404;2023-06-14T07:20:07;17.80;99.90
18880;DHT22;9572;52.378;13.404;2023-06-14T07:22:37;18.20;99.90
18880;DHT22;9572;52.378;13.404;2023-06-14T07:25:06;18.50;99.90
18880;DHT22;9572;52.378;13.404;2023-06-14T07:27:33;19.10;99.90
18880;DHT22;9572;52.378;13.404;2023-06-14T07:30:00;19.70;99.90
18880;DHT22;9572;52.378;13.404;2023-06-14T07:32:27;20.00;99.90
18880;DHT22;9572;52.378;13.404;2023-06-14T07:34:54;20.20;99.90
18880;DHT22;9572;52.378;13.404;2023-06-14T07:37:21;20.20;99.90
18880;DHT22;9572;52.378;13.404;2023-06-14T07:39:48;19.90;99.90
18880;DHT22;9572;52.378;13.404;2023-06-14T07:42:16;19.80;99.90
18880;DHT22;9572;52.378;13.404;2023-06-14T07:44:43;19.60;99.90
18880;DHT22;9572;52.378;13.404;2023-06-14T07:47:10;19.30;99.90
18880;DHT22;9572;52.378;13.404;2023-06-14T07:49:37;19.00;99.90
18880;DHT22;9572;52.378;13.404;2023-06-14T07:52:04;19.10;99.90
18880;DHT22;9572;52.378;13.404;2023-06-14T07:54:31;19.10;99.90
18880;DHT22;9572;52.378;13.404;2023-06-14T07:56:58;19.20;99.90
18880;DHT22;9572;52.378;13.404;2023-06-14T07:59:27;19.20;99.90
18880;DHT22;9572;52.378;13.404;2023-06-14T08:01:54;19.20;99.90
18880;DHT22;9572;52.378;13.404;2023-06-14T08:04:21;19.20;99.90
18880;DHT22;9572;52.378;13.404;2023-06-14T08:06:49;19.10;99.90
18880;DHT22;9572;52.378;13.404;2023-06-14T08:09:16;18.80;99.90
18880;DHT22;9572;52.378;13.404;2023-06-14T08:11:43;18.60;99.90
18880;DHT22;9572;52.378;13.404;2023-06-14T08:14:10;18.60;99.90
18880;DHT22;9572;52.378;13.404;2023-06-14T08:16:38;18.60;99.90
18880;DHT22;9572;52.378;13.404;2023-06-14T08:19:05;18.40;99.90
18880;DHT22;9572;52.378;13.404;2023-06-14T08:21:32;18.50;99.90
18880;DHT22;9572;52.378;13.404;2023-06-14T08:23:59;18.60;99.90
18880;DHT22;9572;52.378;13.404;2023-06-14T08:26:26;18.90;99.90
18880;DHT22;9572;52.378;13.404;2023-06-14T08:28:54;19.10;99.90
18880;DHT22;9572;52.378;13.404;2023-06-14T08:31:21;19.10;99.90
18880;DHT22;9572;52.378;13.404;2023-06-14T08:33:50;19.10;99.90
18880;DHT22;9572;52.378;13.404;2023-06-14T08:36:17;19.20;99.90
18880;DHT22;9572;52.378;13.404;2023-06-14T08:38:44;19.40;99.90
18880;DHT22;9572;52.378;13.404;2023-06-14T08:41:12;19.50;99.90
18880;DHT22;9572;52.378;13.404;2023-06-14T08:43:40;19.70;99.90
18880;DHT22;9572;52.378;13.404;2023-06-14T08:46:06;19.60;99.90
18880;DHT22;9572;52.378;13.404;2023-06-14T08:48:38;19.60;99.90
18880;DHT22;9572;52.378;13.404;2023-06-14T08:51:08;19.80;99.90
18880;DHT22;9572;52.378;13.404;2023-06-14T08:53:37;19.90;99.90
18880;DHT22;9572;52.378;13.404;2023-06-14T08:56:08;20.10;99.90
18880;DHT22;9572;52.378;13.404;2023-06-14T08:58:40;20.30;99.90
18880;DHT22;9572;52.378;13.404;2023-06-14T09:01:10;20.40;99.90
18880;DHT22;9572;52.378;13.404;2023-06-14T09:03:40;20.40;99.90
18880;DHT22;9572;52.378;13.404;2023-06-14T09:06:08;20.60;99.90
18880;DHT22;9572;52.378;13.404;2023-06-14T09:08:40;20.70;99.90
18880;DHT22;9572;52.378;13.404;2023-06-14T09:11:10;20.70;99.90
18880;DHT22;9572;52.378;13.404;2023-06-14T09:13:37;20.80;99.90
18880;DHT22;9572;52.378;13.404;2023-06-14T09:16:04;20.90;99.90
18880;DHT22;9572;52.378;13.404;2023-06-14T09:18:35;20.90;99.90
18880;DHT22;9572;52.378;13.404;2023-06-14T09:21:02;21.00;99.90
18880;DHT22;9572;52.378;13.404;2023-06-14T09:23:33;21.00;99.90
18880;DHT22;9572;52.378;13.404;2023-06-14T09:26:07;20.90;99.90
18880;DHT22;9572;52.378;13.404;2023-06-14T09:28:34;21.00;99.90
18880;DHT22;9572;52.378;13.404;2023-06-14T09:31:01;21.10;99.90
18880;DHT22;9572;52.378;13.404;2023-06-14T09:33:28;21.20;99.90
18880;DHT22;9572;52.378;13.404;2023-06-14T09:35:57;21.30;99.90
18880;DHT22;9572;52.378;13.404;2023-06-14T09:38:24;21.30;99.90
18880;DHT22;9572;52.378;13.404;2023-06-14T09:40:54;21.20;99.90
18880;DHT22;9572;52.378;13.404;2023-06-14T09:43:22;21.30;99.90
18880;DHT22;9572;52.378;13.404;2023-06-14T09:45:50;21.60;99.90
18880;DHT22;9572;52.378;13.404;2023-06-14T09:48:18;21.70;99.90
18880;DHT22;9572;52.378;13.404;2023-06-14T09:50:45;21.80;99.90
18880;DHT22;9572;52.378;13.404;2023-06-14T09:53:14;21.90;99.90
18880;DHT22;9572;52.378;13.404;2023-06-14T09:55:42;21.80;99.90
18880;DHT22;9572;52.378;13.404;2023-06-14T09:58:12;21.50;99.90
18880;DHT22;9572;52.378;13.404;2023-06-14T10:00:41;21.40;99.90
18880;DHT22;9572;52.378;13.404;2023-06-14T10:03:12;21.40;99.90
18880;DHT22;9572;52.378;13.404;2023-06-14T10:05:43;21.60;99.90
18880;DHT22;9572;52.378;13.404;2023-06-14T10:08:13;21.70;99.90
18880;DHT22;9572;52.378;13.404;2023-06-14T10:10:42;21.80;99.90
18880;DHT22;9572;52.378;13.404;2023-06-14T10:13:11;22.00;99.90
18880;DHT22;9572;52.378;13.404;2023-06-14T10:15:42;22.10;99.90
18880;DHT22;9572;52.378;13.404;2023-06-14T10:18:18;22.10;99.90
18880;DHT22;9572;52.378;13.404;2023-06-14T10:20:53;22.00;99.90
18880;DHT22;9572;52.378;13.404;2023-06-14T10:23:23;21.90;99.90
18880;DHT22;9572;52.378;13.404;2023-06-14T10:25:54;21.80;99.90
18880;DHT22;9572;52.378;13.404;2023-06-14T10:28:24;22.20;99.90
18880;DHT22;9572;52.378;13.404;2023-06-14T10:31:05;22.40;99.90
18880;DHT22;9572;52.378;13.404;2023-06-14T10:33:33;22.80;99.90
18880;DHT22;9572;52.378;13.404;2023-06-14T10:36:25;23.10;99.90
18880;DHT22;9572;52.378;13.404;2023-06-14T10:39:00;23.20;99.90
18880;DHT22;9572;52.378;13.404;2023-06-14T10:41:28;23.10;99.90
18880;DHT22;9572;52.378;13.404;2023-06-14T10:44:40;23.20;99.90
18880;DHT22;9572;52.378;13.404;2023-06-14T10:47:09;23.20;99.90
18880;DHT22;9572;52.378;13.404;2023-06-14T10:49:38;23.20;99.90
18880;DHT22;9572;52.378;13.404;2023-06-14T10:52:08;23.20;99.90
18880;DHT22;9572;52.378;13.404;2023-06-14T10:55:00;22.90;99.90
18880;DHT22;9572;52.378;13.404;2023-06-14T10:57:29;22.60;99.90
18880;DHT22;9572;52.378;13.404;2023-06-14T10:59:59;22.30;99.90
18880;DHT22;9572;52.378;13.404;2023-06-14T11:05:49;22.30;99.90
18880;DHT22;9572;52.378;13.404;2023-06-14T11:08:44;22.10;99.90
18880;DHT22;9572;52.378;13.404;2023-06-14T11:11:13;22.30;99.90
18880;DHT22;9572;52.378;13.404;2023-06-14T11:13:42;22.60;99.90
18880;DHT22;9572;52.378;13.404;2023-06-14T11:16:12;22.70;99.90
18880;DHT22;9572;52.378;13.404;2023-06-14T11:18:39;23.10;99.90
18880;DHT22;9572;52.378;13.404;2023-06-14T11:21:06;23.30;99.90
18880;DHT22;9572;52.378;13.404;2023-06-14T11:23:34;23.50;99.90
18880;DHT22;9572;52.378;13.404;2023-06-14T11:26:01;23.50;99.90
18880;DHT22;9572;52.378;13.404;2023-06-14T11:28:36;23.40;99.90
18880;DHT22;9572;52.378;13.404;2023-06-14T11:31:04;23.50;99.90
18880;DHT22;9572;52.378;13.404;2023-06-14T11:33:32;23.40;99.90
18880;DHT22;9572;52.378;13.404;2023-06-14T11:36:02;23.30;99.90
18880;DHT22;9572;52.378;13.404;2023-06-14T11:38:29;23.40;99.90
18880;DHT22;9572;52.378;13.404;2023-06-14T11:40:59;23.60;99.90
18880;DHT22;9572;52.378;13.404;2023-06-14T11:43:26;23.70;99.90
18880;DHT22;9572;52.378;13.404;2023-06-14T11:45:54;24.00;99.90
18880;DHT22;9572;52.378;13.404;2023-06-14T11:48:21;23.80;99.90
18880;DHT22;9572;52.378;13.404;2023-06-14T11:50:51;23.80;99.90
18880;DHT22;9572;52.378;13.404;2023-06-14T11:53:18;23.90;99.90
18880;DHT22;9572;52.378;13.404;2023-06-14T11:55:45;24.00;99.90
18880;DHT22;9572;52.378;13.404;2023-06-14T11:58:13;24.10;99.90
18880;DHT22;9572;52.378;13.404;2023-06-14T12:00:40;23.90;99.90
18880;DHT22;9572;52.378;13.404;2023-06-14T12:03:07;23.60;99.90
18880;DHT22;9572;52.378;13.404;2023-06-14T12:05:34;23.60;99.90
18880;DHT22;9572;52.378;13.404;2023-06-14T12:08:03;23.60;99.90
18880;DHT22;9572;52.378;13.404;2023-06-14T12:10:40;23.50;99.90
18880;DHT22;9572;52.378;13.404;2023-06-14T12:13:10;23.50;99.90
18880;DHT22;9572;52.378;13.404;2023-06-14T12:15:37;23.40;99.90
18880;DHT22;9572;52.378;13.404;2023-06-14T12:18:05;23.60;99.90
18880;DHT22;9572;52.378;13.404;2023-06-14T12:20:33;23.90;99.90
18880;DHT22;9572;52.378;13.404;2023-06-14T12:23:04;24.20;99.90
18880;DHT22;9572;52.378;13.404;2023-06-14T12:25:32;24.30;99.90
18880;DHT22;9572;52.378;13.404;2023-06-14T12:28:04;24.30;99.90
18880;DHT22;9572;52.378;13.404;2023-06-14T12:30:31;24.70;99.90
18880;DHT22;9572;52.378;13.404;2023-06-14T12:32:58;24.80;99.90
18880;DHT22;9572;52.378;13.404;2023-06-14T12:35:26;25.00;99.90
18880;DHT22;9572;52.378;13.404;2023-06-14T12:37:52;25.30;99.90
18880;DHT22;9572;52.378;13.404;2023-06-14T12:40:21;25.60;99.90
18880;DHT22;9572;52.378;13.404;2023-06-14T12:42:48;25.60;99.90
18880;DHT22;9572;52.378;13.404;2023-06-14T12:45:15;25.60;99.90
18880;DHT22;9572;52.378;13.404;2023-06-14T12:47:42;25.50;99.90
18880;DHT22;9572;52.378;13.404;2023-06-14T12:50:09;25.70;99.90
18880;DHT22;9572;52.378;13.404;2023-06-14T12:52:36;25.90;99.90
18880;DHT22;9572;52.378;13.404;2023-06-14T12:55:03;26.10;99.90
18880;DHT22;9572;52.378;13.404;2023-06-14T12:57:32;26.00;99.90
18880;DHT22;9572;52.378;13.404;2023-06-14T13:00:00;25.70;99.90
18880;DHT22;9572;52.378;13.404;2023-06-14T13:02:28;25.70;99.90
18880;DHT22;9572;52.378;13.404;2023-06-14T13:04:55;25.50;99.90
18880;DHT22;9572;52.378;13.404;2023-06-14T13:07:24;25.20;99.90
18880;DHT22;9572;52.378;13.404;2023-06-14T13:09:51;25.30;99.90
18880;DHT22;9572;52.378;13.404;2023-06-14T13:12:18;25.50;99.90
18880;DHT22;9572;52.378;13.404;2023-06-14T13:14:47;25.70;99.90
18880;DHT22;9572;52.378;13.404;2023-06-14T13:17:13;25.90;99.90
18880;DHT22;9572;52.378;13.404;2023-06-14T13:19:40;25.80;99.90
18880;DHT22;9572;52.378;13.404;2023-06-14T13:22:07;25.70;99.90
18880;DHT22;9572;52.378;13.404;2023-06-14T13:24:35;25.60;99.90
18880;DHT22;9572;52.378;13.404;2023-06-14T13:27:02;25.70;99.90
18880;DHT22;9572;52.378;13.404;2023-06-14T13:29:29;25.70;99.90
18880;DHT22;9572;52.378;13.404;2023-06-14T13:31:58;25.80;99.90
18880;DHT22;9572;52.378;13.404;2023-06-14T13:34:25;25.80;99.90
18880;DHT22;9572;52.378;13.404;2023-06-14T13:36:52;25.80;99.90
18880;DHT22;9572;52.378;13.404;2023-06-14T13:39:19;25.90;99.90
18880;DHT22;9572;52.378;13.404;2023-06-14T13:41:46;26.10;99.90
18880;DHT22;9572;52.378;13.404;2023-06-14T13:44:13;26.20;99.90
18880;DHT22;9572;52.378;13.404;2023-06-14T13:46:41;26.20;99.90
18880;DHT22;9572;52.378;13.404;2023-06-14T13:49:11;26.10;99.90
18880;DHT22;9572;52.378;13.404;2023-06-14T13:51:38;26.10;99.90
18880;DHT22;9572;52.378;13.404;2023-06-14T13:54:05;26.30;99.90
18880;DHT22;9572;52.378;13.404;2023-06-14T13:56:32;26.50;99.90
18880;DHT22;9572;52.378;13.404;2023-06-14T13:58:59;26.60;99.90
18880;DHT22;9572;52.378;13.404;2023-06-14T14:01:26;26.50;99.90
18880;DHT22;9572;52.378;13.404;2023-06-14T14:03:54;26.50;99.90
18880;DHT22;9572;52.378;13.404;2023-06-14T14:06:22;26.60;99.90
18880;DHT22;9572;52.378;13.404;2023-06-14T14:08:49;26.70;99.90
18880;DHT22;9572;52.378;13.404;2023-06-14T14:11:18;26.70;99.90
18880;DHT22;9572;52.378;13.404;2023-06-14T14:13:45;26.80;99.90
18880;DHT22;9572;52.378;13.404;2023-06-14T14:16:13;26.90;99.90
18880;DHT22;9572;52.378;13.404;2023-06-14T14:18:40;26.80;99.90
18880;DHT22;9572;52.378;13.404;2023-06-14T14:21:07;26.70;99.90
18880;DHT22;9572;52.378;13.404;2023-06-14T14:23:36;26.30;99.50
18880;DHT22;9572;52.378;13.404;2023-06-14T14:26:03;26.10;99.50
18880;DHT22;9572;52.378;13.404;2023-06-14T14:28:30;26.00;99.90
18880;DHT22;9572;52.378;13.404;2023-06-14T14:30:58;25.80;99.90
18880;DHT22;9572;52.378;13.404;2023-06-14T14:33:25;25.90;99.90
18880;DHT22;9572;52.378;13.404;2023-06-14T14:35:51;25.80;99.90
18880;DHT22;9572;52.378;13.404;2023-06-14T14:38:18;25.70;99.90
18880;DHT22;9572;52.378;13.404;2023-06-14T14:40:47;25.80;99.90
18880;DHT22;9572;52.378;13.404;2023-06-14T14:43:14;25.70;99.50
18880;DHT22;9572;52.378;13.404;2023-06-14T14:45:41;25.50;99.90
18880;DHT22;9572;52.378;13.404;2023-06-14T14:48:08;25.60;99.90
18880;DHT22;9572;52.378;13.404;2023-06-14T14:50:34;25.70;99.90
18880;DHT22;9572;52.378;13.404;2023-06-14T14:53:01;25.80;99.90
18880;DHT22;9572;52.378;13.404;2023-06-14T14:55:28;25.70;99.70
18880;DHT22;9572;52.378;13.404;2023-06-14T14:57:57;25.70;99.70
18880;DHT22;9572;52.378;13.404;2023-06-14T15:00:24;25.60;99.40
18880;DHT22;9572;52.378;13.404;2023-06-14T15:02:51;25.60;99.70
18880;DHT22;9572;52.378;13.404;2023-06-14T15:05:18;25.70;99.80
18880;DHT22;9572;52.378;13.404;2023-06-14T15:07:45;26.00;99.60
18880;DHT22;9572;52.378;13.404;2023-06-14T15:10:12;26.50;98.50
18880;DHT22;9572;52.378;13.404;2023-06-14T15:12:39;26.70;97.60
18880;DHT22;9572;52.378;13.404;2023-06-14T15:15:08;26.80;97.40
18880;DHT22;9572;52.378;13.404;2023-06-14T15:17:35;27.10;98.10
18880;DHT22;9572;52.378;13.404;2023-06-14T15:20:02;27.20;96.50
18880;DHT22;9572;52.378;13.404;2023-06-14T15:22:31;27.30;96.80
18880;DHT22;9572;52.378;13.404;2023-06-14T15:24:58;27.10;96.50
18880;DHT22;9572;52.378;13.404;2023-06-14T15:27:25;26.80;95.50
18880;DHT22;9572;52.378;13.404;2023-06-14T15:29:53;26.60;95.90
18880;DHT22;9572;52.378;13.404;2023-06-14T15:32:21;26.20;95.90
18880;DHT22;9572;52.378;13.404;2023-06-14T15:34:48;25.90;96.10
18880;DHT22;9572;52.378;13.404;2023-06-14T15:37:15;25.50;96.10
18880;DHT22;9572;52.378;13.404;2023-06-14T15:39:42;25.20;96.70